Time;durP1;ratioP1;P1;durP2;ratioP2;P2;SDS_P1;SDS_P2;PMS_P1;PMS_P2;Temp;Humidity;BMP_temperature;BMP_pressure;BME280_temperature;BME280_humidity;BME280_pressure;Samples;Min_cycle;Max_cycle;Signal;HPM_P1;HPM_P2
2021/04/30 00:00:40;;;;;;;7.33;6.73;;;;;;;11.47;60.34;95845.97;5074978;28;20197;-68
2021/04/30 00:03:06;;;;;;;7.17;6.20;;;;;;;11.44;60.41;95841.19;5075029;28;20178;-68
2021/04/30 00:05:32;;;;;;;6.10;5.60;;;;;;;11.54;61.03;95840.53;5075013;28;20171;-69
2021/04/30 00:07:59;;;;;;;6.53;6.00;;;;;;;11.53;60.76;95838.94;5074464;28;20167;-68
2021/04/30 00:10:25;;;;;;;6.80;6.30;;;;;;;11.59;60.53;95830.06;5061821;28;20954;-68
2021/04/30 00:12:51;;;;;;;6.97;6.47;;;;;;;11.59;60.53;95835.34;5063661;28;20417;-69
2021/04/30 00:15:16;;;;;;;7.20;6.57;;;;;;;11.63;60.40;95845.13;5074666;28;20410;-69
2021/04/30 00:17:42;;;;;;;7.40;6.80;;;;;;;11.67;59.68;95840.22;5074077;28;20174;-68
2021/04/30 00:20:08;;;;;;;7.57;6.97;;;;;;;11.79;59.25;95830.34;5073748;28;20199;-68
2021/04/30 00:22:34;;;;;;;7.73;7.07;;;;;;;11.70;59.53;95834.44;5074679;28;20194;-68
2021/04/30 00:24:59;;;;;;;7.47;6.73;;;;;;;11.78;59.54;95834.00;5062503;28;20417;-69
2021/04/30 00:27:25;;;;;;;7.77;7.07;;;;;;;11.83;57.89;95840.13;5058222;28;20642;-68
2021/04/30 00:29:50;;;;;;;7.40;6.80;;;;;;;11.72;57.89;95846.31;5054359;28;20260;-68
2021/04/30 00:32:15;;;;;;;7.43;6.80;;;;;;;11.67;58.68;95846.25;5054934;28;20171;-68
2021/04/30 00:34:41;;;;;;;6.80;6.30;;;;;;;11.67;58.00;95838.34;5054362;28;20191;-69
2021/04/30 00:37:07;;;;;;;7.73;7.10;;;;;;;11.58;58.29;95852.19;5054997;28;20183;-68
2021/04/30 00:39:33;;;;;;;8.50;7.70;;;;;;;11.61;59.56;95856.94;5054293;28;20191;-68
2021/04/30 00:41:59;;;;;;;7.90;7.20;;;;;;;11.61;58.16;95857.75;5060153;28;20502;-68
2021/04/30 00:44:24;;;;;;;7.33;6.83;;;;;;;11.46;58.82;95841.75;5074040;28;20820;-69
2021/04/30 00:46:50;;;;;;;9.93;8.10;;;;;;;11.49;59.23;95845.72;5073972;28;20163;-76
2021/04/30 00:49:16;;;;;;;8.13;7.43;;;;;;;11.41;58.85;95842.47;5073807;28;20190;-69
2021/04/30 00:51:41;;;;;;;7.47;6.77;;;;;;;11.43;58.97;95838.81;5073001;28;20262;-68
2021/04/30 00:54:07;;;;;;;7.10;6.47;;;;;;;11.40;58.95;95833.00;5074115;28;20497;-69
2021/04/30 00:56:33;;;;;;;6.70;6.20;;;;;;;11.32;60.15;95836.03;5069251;28;20167;-68
2021/04/30 00:59:00;;;;;;;7.97;7.27;;;;;;;11.51;59.02;95836.56;5053493;28;20199;-68
2021/04/30 01:01:25;;;;;;;7.20;6.60;;;;;;;11.48;59.15;95842.31;5053746;28;20453;-68
2021/04/30 01:03:52;;;;;;;6.97;6.37;;;;;;;11.14;59.60;95838.16;5053909;28;20464;-68
2021/04/30 01:06:18;;;;;;;7.10;6.50;;;;;;;11.30;59.75;95840.75;5062117;28;20257;-69
2021/04/30 01:08:43;;;;;;;7.37;6.77;;;;;;;11.37;59.58;95836.13;5073323;28;20931;-69
2021/04/30 01:11:09;;;;;;;7.43;6.83;;;;;;;11.32;60.02;95843.16;5070043;28;20557;-68
2021/04/30 01:13:35;;;;;;;7.30;6.70;;;;;;;11.37;60.25;95846.66;5067846;28;20210;-70
2021/04/30 01:16:00;;;;;;;7.27;6.60;;;;;;;11.57;59.40;95848.75;5054529;28;20176;-68
2021/04/30 01:18:26;;;;;;;7.70;7.00;;;;;;;11.49;59.26;95849.16;5053289;28;20171;-68
2021/04/30 01:20:51;;;;;;;7.17;6.57;;;;;;;11.49;59.19;95854.41;5054463;28;20645;-69
2021/04/30 01:23:17;;;;;;;6.90;6.30;;;;;;;11.26;58.91;95850.19;5053762;28;20172;-68
2021/04/30 01:25:42;;;;;;;7.70;7.10;;;;;;;11.12;59.07;95853.38;5053644;28;20199;-68
2021/04/30 01:28:09;;;;;;;7.70;7.00;;;;;;;11.21;59.64;95857.97;5053137;28;20289;-68
2021/04/30 01:30:37;;;;;;;8.50;7.80;;;;;;;11.06;60.16;95849.88;5066439;28;20676;-69
2021/04/30 01:33:04;;;;;;;7.40;6.70;;;;;;;11.09;60.38;95856.47;5053350;28;20413;-68
2021/04/30 01:35:33;;;;;;;8.43;7.53;;;;;;;11.17;59.40;95842.94;5055337;28;20425;-68
2021/04/30 01:38:00;;;;;;;7.70;7.00;;;;;;;11.34;58.49;95841.84;5053027;28;20410;-70
2021/04/30 01:40:31;;;;;;;8.43;7.73;;;;;;;11.54;58.67;95837.91;5053091;28;20488;-69
2021/04/30 01:43:10;;;;;;;8.70;8.00;;;;;;;11.30;57.66;95840.75;5055455;28;20400;-68
2021/04/30 01:45:43;;;;;;;8.40;7.70;;;;;;;11.25;56.85;95848.56;5073511;28;20451;-68
2021/04/30 01:48:14;;;;;;;8.43;7.63;;;;;;;11.34;56.92;95846.34;5072120;28;20405;-69
2021/04/30 01:50:40;;;;;;;10.33;8.17;;;;;;;11.41;57.59;95841.69;5073123;28;20435;-68
2021/04/30 01:53:15;;;;;;;9.00;8.13;;;;;;;11.26;57.39;95850.19;5056539;28;20433;-68
2021/04/30 01:55:40;;;;;;;9.20;8.40;;;;;;;10.88;58.12;95860.66;5053551;28;20409;-69
2021/04/30 01:58:06;;;;;;;9.57;8.63;;;;;;;10.94;58.54;95856.28;5052920;28;20412;-68
2021/04/30 02:00:31;;;;;;;8.57;7.87;;;;;;;10.57;58.74;95865.66;5056666;28;20209;-69
2021/04/30 02:02:58;;;;;;;10.17;8.60;;;;;;;10.10;59.88;95871.13;5071014;28;20257;-68
2021/04/30 02:05:26;;;;;;;9.43;8.53;;;;;;;10.09;61.10;95874.78;5073328;28;20185;-68
2021/04/30 02:07:52;;;;;;;10.83;8.67;;;;;;;9.93;60.97;95867.63;5072918;28;20404;-68
2021/04/30 02:10:27;;;;;;;9.90;8.97;;;;;;;9.56;61.76;95862.94;5064536;28;20436;-69
2021/04/30 02:12:53;;;;;;;11.40;10.20;;;;;;;9.60;62.67;95874.56;5051882;28;20415;-68
2021/04/30 02:15:23;;;;;;;12.10;10.90;;;;;;;9.37;64.45;95872.75;5056370;28;20424;-68
2021/04/30 02:17:48;;;;;;;10.30;9.40;;;;;;;9.08;65.19;95879.72;5069007;28;20463;-68
2021/04/30 02:20:16;;;;;;;11.50;10.40;;;;;;;9.37;66.87;95882.47;5062274;28;20502;-68
2021/04/30 02:22:42;;;;;;;12.87;11.63;;;;;;;9.47;68.91;95875.63;5073189;28;20178;-69
2021/04/30 02:25:09;;;;;;;12.97;11.77;;;;;;;8.84;71.39;95877.34;5071602;28;20419;-68
2021/04/30 02:27:35;;;;;;;11.87;10.77;;;;;;;8.90;70.34;95873.78;5072622;28;20178;-68
2021/04/30 02:30:01;;;;;;;11.97;10.80;;;;;;;9.36;70.33;95865.94;5070595;28;20514;-69
2021/04/30 02:32:29;;;;;;;11.80;10.60;;;;;;;9.58;69.80;95876.63;5052977;28;20516;-69
2021/04/30 02:34:56;;;;;;;11.87;10.63;;;;;;;9.64;68.94;95867.84;5060263;28;20419;-69
2021/04/30 02:37:22;;;;;;;12.17;10.97;;;;;;;9.83;68.98;95849.06;5072774;28;20906;-69
2021/04/30 02:39:48;;;;;;;12.20;11.10;;;;;;;10.02;69.31;95853.09;5072775;28;20855;-68
2021/04/30 02:42:13;;;;;;;12.37;11.27;;;;;;;10.27;68.04;95847.56;5072717;28;20482;-68
2021/04/30 02:44:38;;;;;;;13.30;12.10;;;;;;;10.38;69.02;95836.97;5072335;28;20174;-69
2021/04/30 02:47:04;;;;;;;11.97;10.87;;;;;;;10.42;69.17;95829.41;5076073;28;20215;-69
2021/04/30 02:49:40;;;;;;;12.33;11.17;;;;;;;10.47;67.85;95826.91;5069628;28;20222;-68
2021/04/30 02:52:07;;;;;;;12.30;11.07;;;;;;;10.73;65.59;95835.94;5067695;28;20423;-69
2021/04/30 02:54:33;;;;;;;13.07;11.77;;;;;;;10.46;68.35;95838.41;5076388;28;20878;-68
2021/04/30 02:56:58;;;;;;;12.37;11.27;;;;;;;10.58;67.27;95833.88;5073829;28;20427;-73
2021/04/30 02:59:24;;;;;;;11.57;10.47;;;;;;;10.47;68.80;95836.59;5076517;28;20210;-69
2021/04/30 03:01:49;;;;;;;12.40;11.20;;;;;;;10.50;67.56;95834.28;5075952;28;20206;-68
2021/04/30 03:04:15;;;;;;;12.10;11.00;;;;;;;10.36;69.30;95835.63;5076286;28;20183;-69
2021/04/30 03:06:40;;;;;;;12.27;11.17;;;;;;;10.59;68.65;95850.44;5066076;28;20410;-69
2021/04/30 03:09:06;;;;;;;12.80;11.50;;;;;;;10.73;67.14;95851.72;5055789;28;20194;-68
2021/04/30 03:11:31;;;;;;;11.63;10.63;;;;;;;10.88;65.97;95849.34;5063514;28;20177;-68
2021/04/30 03:13:56;;;;;;;11.67;10.60;;;;;;;11.00;66.20;95852.66;5075877;28;20191;-70
2021/04/30 03:16:22;;;;;;;12.90;11.60;;;;;;;10.78;67.12;95862.34;5075800;28;20174;-68
2021/04/30 03:18:47;;;;;;;10.87;9.80;;;;;;;10.71;66.94;95866.91;5074784;28;20222;-69
2021/04/30 03:21:13;;;;;;;11.20;10.20;;;;;;;10.75;67.50;95860.97;5059542;28;20298;-69
2021/04/30 03:23:38;;;;;;;11.33;10.37;;;;;;;10.67;68.29;95863.19;5075811;28;20524;-69
2021/04/30 03:26:04;;;;;;;10.57;9.57;;;;;;;10.73;68.51;95860.41;5057166;28;20523;-69
2021/04/30 03:28:29;;;;;;;10.40;9.50;;;;;;;10.74;69.01;95850.69;5055050;28;20178;-68
2021/04/30 03:30:55;;;;;;;11.70;10.50;;;;;;;10.76;68.32;95851.25;5055687;28;20171;-68
2021/04/30 03:33:20;;;;;;;11.10;10.00;;;;;;;10.80;68.17;95841.84;5055948;28;20178;-69
2021/04/30 03:35:45;;;;;;;11.30;10.20;;;;;;;10.84;66.98;95833.25;5056319;28;20569;-69
2021/04/30 03:38:11;;;;;;;11.63;10.53;;;;;;;10.78;67.16;95830.81;5055072;28;20265;-69
2021/04/30 03:40:36;;;;;;;11.50;10.50;;;;;;;10.92;66.18;95832.84;5071344;28;20288;-68
2021/04/30 03:43:01;;;;;;;13.23;11.93;;;;;;;10.88;66.82;95841.44;5075575;28;20621;-68
2021/04/30 03:45:27;;;;;;;11.90;10.80;;;;;;;10.90;66.58;95839.38;5076107;28;20200;-68
2021/04/30 03:47:52;;;;;;;10.80;9.70;;;;;;;10.59;67.92;95845.19;5074803;28;20511;-69
2021/04/30 03:50:18;;;;;;;12.63;11.33;;;;;;;10.58;67.77;95836.50;5069882;28;20212;-69
2021/04/30 03:52:43;;;;;;;11.63;10.57;;;;;;;10.68;67.43;95833.25;5070883;28;20229;-69
2021/04/30 03:55:09;;;;;;;12.30;11.20;;;;;;;10.73;67.95;95823.63;5054120;28;20183;-68
2021/04/30 03:57:34;;;;;;;12.00;10.90;;;;;;;10.77;67.80;95816.06;5057546;28;20196;-70
2021/04/30 04:00:00;;;;;;;11.73;10.67;;;;;;;10.75;67.05;95818.91;5073783;28;20468;-69
2021/04/30 04:02:25;;;;;;;12.77;11.57;;;;;;;10.72;66.63;95824.66;5075255;28;20225;-69
2021/04/30 04:04:51;;;;;;;12.83;11.53;;;;;;;10.99;66.14;95832.69;5075262;28;20178;-69
2021/04/30 04:07:16;;;;;;;12.67;11.53;;;;;;;10.96;66.02;95826.06;5071424;28;20173;-68
2021/04/30 04:09:41;;;;;;;14.47;13.00;;;;;;;10.86;67.25;95830.38;5060815;28;20213;-68
2021/04/30 04:12:07;;;;;;;11.33;9.80;;;;;;;10.91;66.52;95825.19;5055024;28;20185;-69
2021/04/30 04:14:33;;;;;;;12.47;10.60;;;;;;;10.94;65.96;95830.00;5053694;28;20179;-68
2021/04/30 04:16:58;;;;;;;11.63;10.60;;;;;;;10.69;65.96;95829.59;5054448;28;20414;-72
2021/04/30 04:19:24;;;;;;;11.90;10.60;;;;;;;10.58;67.34;95823.38;5054683;28;20196;-69
2021/04/30 04:21:49;;;;;;;12.97;11.43;;;;;;;10.69;66.55;95816.47;5055678;28;20214;-68
2021/04/30 04:24:16;;;;;;;12.20;10.97;;;;;;;10.77;65.90;95827.38;5055628;28;20182;-68
2021/04/30 04:26:41;;;;;;;13.00;11.03;;;;;;;10.82;66.05;95829.25;5054798;28;20261;-68
2021/04/30 04:29:08;;;;;;;11.27;10.17;;;;;;;10.69;64.19;95838.25;5064706;28;20532;-68
2021/04/30 04:31:36;;;;;;;12.30;11.13;;;;;;;10.82;64.37;95837.94;5074406;28;20218;-69
2021/04/30 04:34:02;;;;;;;11.53;10.33;;;;;;;10.78;64.28;95836.81;5074764;28;20407;-68
2021/04/30 04:36:27;;;;;;;11.87;10.77;;;;;;;10.68;65.36;95830.63;5062210;28;20421;-69
2021/04/30 04:38:53;;;;;;;12.03;10.83;;;;;;;10.83;64.61;95836.13;5060613;28;20440;-69
2021/04/30 04:41:18;;;;;;;12.10;10.80;;;;;;;10.83;64.32;95838.75;5062922;28;20665;-70
2021/04/30 04:43:43;;;;;;;12.07;10.70;;;;;;;10.88;64.77;95844.88;5054631;28;20182;-68
2021/04/30 04:46:09;;;;;;;14.13;11.57;;;;;;;10.96;62.03;95844.47;5054388;28;20254;-68
2021/04/30 04:48:34;;;;;;;12.03;10.90;;;;;;;10.76;64.08;95849.41;5053874;28;20532;-69
2021/04/30 04:51:00;;;;;;;11.63;10.53;;;;;;;10.81;64.30;95846.88;5073211;28;20216;-70
2021/04/30 04:53:26;;;;;;;11.37;10.23;;;;;;;10.81;64.38;95849.50;5074080;28;20192;-68
2021/04/30 04:55:51;;;;;;;12.03;10.90;;;;;;;10.87;64.11;95850.38;5063668;28;20183;-69
2021/04/30 04:58:16;;;;;;;11.33;10.33;;;;;;;10.90;63.22;95858.59;5053517;28;20179;-68
2021/04/30 05:00:42;;;;;;;11.97;10.77;;;;;;;11.04;62.50;95856.41;5053880;28;20281;-69
2021/04/30 05:03:07;;;;;;;11.63;10.53;;;;;;;11.06;62.06;95865.66;5054088;28;20691;-69
2021/04/30 05:05:32;;;;;;;13.97;12.43;;;;;;;10.97;64.07;95864.47;5072669;28;20182;-68
2021/04/30 05:07:58;;;;;;;12.23;11.03;;;;;;;11.06;62.31;95864.84;5073095;28;20209;-69
2021/04/30 05:10:23;;;;;;;13.10;11.77;;;;;;;11.06;61.80;95863.03;5073920;28;20193;-69
2021/04/30 05:12:49;;;;;;;12.50;11.30;;;;;;;11.19;61.64;95862.69;5072738;28;20644;-70
2021/04/30 05:15:14;;;;;;;12.53;11.27;;;;;;;11.27;61.53;95850.94;5070415;28;20181;-69
2021/04/30 05:17:40;;;;;;;12.67;11.40;;;;;;;11.29;61.77;95857.56;5053273;28;20232;-68
2021/04/30 05:20:06;;;;;;;12.37;10.90;;;;;;;11.16;62.70;95860.53;5070620;28;20594;-68
2021/04/30 05:22:33;;;;;;;13.43;12.03;;;;;;;10.87;62.02;95860.91;5073546;28;20171;-69
2021/04/30 05:25:00;;;;;;;12.37;11.10;;;;;;;11.03;62.39;95863.50;5073731;28;20433;-69
2021/04/30 05:27:25;;;;;;;13.80;11.73;;;;;;;11.11;60.47;95864.94;5073265;28;20416;-69
2021/04/30 05:29:51;;;;;;;12.17;10.97;;;;;;;11.12;61.30;95856.00;5072556;28;20444;-69
2021/04/30 05:32:17;;;;;;;14.53;13.07;;;;;;;11.23;60.47;95860.38;5073863;28;20171;-68
2021/04/30 05:34:43;;;;;;;11.57;10.47;;;;;;;11.15;60.89;95852.91;5057060;28;20187;-69
2021/04/30 05:37:08;;;;;;;12.33;11.23;;;;;;;11.05;61.38;95864.06;5053193;28;20413;-68
2021/04/30 05:39:35;;;;;;;12.33;11.13;;;;;;;11.10;62.25;95852.81;5053450;28;20244;-68
2021/04/30 05:42:01;;;;;;;12.10;10.90;;;;;;;10.97;60.79;95845.25;5059871;28;20190;-68
2021/04/30 05:44:27;;;;;;;12.60;11.27;;;;;;;11.11;60.90;95847.31;5057916;28;20483;-68
2021/04/30 05:46:52;;;;;;;12.43;11.13;;;;;;;10.80;62.79;95852.34;5053074;28;20409;-69
2021/04/30 05:49:18;;;;;;;13.30;11.83;;;;;;;10.68;63.27;95855.06;5053068;28;20184;-68
2021/04/30 05:51:43;;;;;;;12.70;11.40;;;;;;;10.93;63.02;95852.84;5053340;28;20170;-68
2021/04/30 05:54:09;;;;;;;12.90;11.60;;;;;;;11.15;62.13;95839.75;5053370;28;20533;-68
2021/04/30 05:56:34;;;;;;;12.83;11.53;;;;;;;10.90;61.63;95834.13;5059678;28;20182;-68
2021/04/30 05:59:00;;;;;;;13.03;11.70;;;;;;;11.01;61.14;95825.34;5052772;28;20199;-69
2021/04/30 06:01:25;;;;;;;12.57;11.27;;;;;;;10.97;61.05;95809.28;5053319;28;20203;-69
2021/04/30 06:03:50;;;;;;;13.17;11.87;;;;;;;10.96;60.49;95807.66;5053144;28;20636;-68
2021/04/30 06:06:16;;;;;;;12.37;11.07;;;;;;;10.96;62.10;95814.78;5053208;28;20171;-69
2021/04/30 06:08:43;;;;;;;13.07;11.77;;;;;;;10.76;62.34;95823.13;5052772;28;20198;-68
2021/04/30 06:11:08;;;;;;;14.53;11.50;;;;;;;10.81;61.62;95830.31;5069854;28;20207;-69
2021/04/30 06:13:34;;;;;;;14.40;12.20;;;;;;;11.03;61.20;95818.03;5052952;28;20504;-68
2021/04/30 06:15:59;;;;;;;13.53;12.20;;;;;;;11.22;59.86;95824.59;5068465;28;20181;-69
2021/04/30 06:18:25;;;;;;;13.90;12.47;;;;;;;11.04;60.93;95823.03;5073193;28;20404;-68
2021/04/30 06:20:50;;;;;;;14.40;12.20;;;;;;;11.04;61.43;95814.34;5077029;28;20673;-69
2021/04/30 06:23:16;;;;;;;12.83;11.53;;;;;;;11.17;61.44;95806.13;5076641;28;20170;-70
2021/04/30 06:25:41;;;;;;;12.13;10.93;;;;;;;11.16;60.90;95800.06;5056705;28;20187;-68
2021/04/30 06:28:07;;;;;;;13.87;12.20;;;;;;;11.09;61.89;95807.31;5072338;28;20645;-68
2021/04/30 06:30:32;;;;;;;13.57;11.67;;;;;;;10.81;60.78;95807.47;5076828;28;20202;-68
2021/04/30 06:32:58;;;;;;;13.80;12.50;;;;;;;10.90;62.43;95813.09;5076891;28;20255;-68
2021/04/30 06:35:23;;;;;;;15.20;12.70;;;;;;;10.79;61.34;95820.03;5071023;28;20171;-68
2021/04/30 06:37:49;;;;;;;14.10;12.53;;;;;;;10.87;61.78;95818.84;5066092;28;20178;-68
2021/04/30 06:40:14;;;;;;;13.80;12.40;;;;;;;11.01;61.34;95815.66;5076332;28;20669;-69
2021/04/30 06:42:40;;;;;;;13.47;12.07;;;;;;;11.22;61.16;95816.69;5062462;28;20194;-68
2021/04/30 06:45:06;;;;;;;14.27;12.87;;;;;;;11.16;60.86;95815.84;5075206;28;20182;-69
2021/04/30 06:47:34;;;;;;;13.47;12.23;;;;;;;11.04;60.93;95811.72;5075995;28;20178;-68
2021/04/30 06:49:59;;;;;;;13.50;12.10;;;;;;;11.06;61.00;95826.22;5070454;28;20449;-69
2021/04/30 06:52:24;;;;;;;13.60;12.20;;;;;;;11.29;59.91;95827.84;5056212;28;20432;-68
2021/04/30 06:54:50;;;;;;;13.03;11.70;;;;;;;11.41;59.05;95831.94;5067482;28;20610;-69
2021/04/30 06:57:17;;;;;;;14.23;12.73;;;;;;;11.10;62.38;95831.78;5075728;28;20183;-69
2021/04/30 06:59:43;;;;;;;11.83;10.73;;;;;;;11.30;61.01;95834.72;5075644;28;20199;-69
2021/04/30 07:02:09;;;;;;;12.93;11.63;;;;;;;11.23;59.36;95836.72;5076210;28;20433;-69
2021/04/30 07:04:34;;;;;;;13.50;12.20;;;;;;;10.92;60.14;95826.81;5071807;28;20468;-68
2021/04/30 07:07:01;;;;;;;13.77;12.43;;;;;;;11.06;59.78;95817.53;5055718;28;20194;-69
2021/04/30 07:09:26;;;;;;;12.37;11.17;;;;;;;11.04;60.45;95815.16;5055880;28;20191;-68
2021/04/30 07:11:52;;;;;;;12.93;11.53;;;;;;;11.14;61.80;95814.50;5056917;28;20535;-68
2021/04/30 07:14:17;;;;;;;11.10;10.10;;;;;;;11.36;59.68;95807.41;5056014;28;20526;-69
2021/04/30 07:16:43;;;;;;;12.90;11.13;;;;;;;11.12;58.75;95812.09;5055763;28;20171;-68
2021/04/30 07:19:08;;;;;;;11.17;10.17;;;;;;;11.20;58.09;95806.44;5057552;28;21099;-69
2021/04/30 07:21:34;;;;;;;13.50;11.33;;;;;;;11.14;58.19;95804.00;5068274;28;20300;-69
2021/04/30 07:23:59;;;;;;;11.83;10.83;;;;;;;11.20;57.54;95805.63;5068427;28;20634;-69
2021/04/30 07:26:25;;;;;;;12.17;10.97;;;;;;;11.31;57.85;95800.28;5059701;28;20211;-68
2021/04/30 07:28:50;;;;;;;10.90;10.00;;;;;;;11.44;57.37;95796.47;5057558;28;20191;-68
2021/04/30 07:31:15;;;;;;;11.67;10.50;;;;;;;11.50;56.97;95803.41;5075555;28;20549;-68
2021/04/30 07:33:50;;;;;;;12.70;10.37;;;;;;;11.55;56.56;95797.41;5075828;28;20666;-68
2021/04/30 07:36:16;;;;;;;12.40;10.50;;;;;;;11.46;58.30;95801.50;5072853;28;20200;-69
2021/04/30 07:38:43;;;;;;;13.27;10.97;;;;;;;11.53;57.86;95791.56;5053771;28;20461;-70
2021/04/30 07:41:09;;;;;;;11.03;9.93;;;;;;;11.03;58.70;95791.75;5055267;28;20458;-70
2021/04/30 07:43:35;;;;;;;12.93;11.73;;;;;;;11.31;59.40;95791.56;5059012;28;20491;-70
2021/04/30 07:46:01;;;;;;;12.80;10.60;;;;;;;11.23;59.34;95792.78;5074023;28;20417;-69
2021/04/30 07:48:27;;;;;;;11.80;10.60;;;;;;;11.20;58.45;95788.03;5074913;28;20693;-69
2021/04/30 07:50:53;;;;;;;12.90;11.60;;;;;;;11.27;58.65;95793.09;5056232;28;20424;-73
2021/04/30 07:53:18;;;;;;;13.73;10.77;;;;;;;11.23;59.98;95789.38;5075283;28;20512;-69
2021/04/30 07:55:44;;;;;;;12.10;10.97;;;;;;;11.31;59.81;95792.38;5075078;28;20175;-69
2021/04/30 07:58:09;;;;;;;12.10;10.93;;;;;;;11.43;57.80;95802.00;5073406;28;20198;-69
2021/04/30 08:00:35;;;;;;;11.33;10.37;;;;;;;11.36;58.37;95802.97;5074773;28;20732;-70
2021/04/30 08:03:00;;;;;;;11.77;10.67;;;;;;;11.45;57.10;95808.59;5075049;28;20634;-67
2021/04/30 08:05:26;;;;;;;10.90;9.90;;;;;;;11.31;57.08;95817.88;5064698;28;20175;-66
2021/04/30 08:07:51;;;;;;;12.37;9.80;;;;;;;11.42;56.36;95816.97;5054387;28;20273;-65
2021/04/30 08:10:17;;;;;;;11.70;10.50;;;;;;;11.43;56.42;95826.47;5053426;28;20194;-67
2021/04/30 08:12:43;;;;;;;10.73;9.63;;;;;;;11.33;57.15;95823.69;5054781;28;20178;-68
2021/04/30 08:15:11;;;;;;;10.73;9.60;;;;;;;11.36;58.71;95831.09;5054061;28;20195;-69
2021/04/30 08:17:36;;;;;;;13.93;10.33;;;;;;;11.32;57.18;95825.53;5072381;28;20181;-65
2021/04/30 08:20:04;;;;;;;11.23;10.13;;;;;;;11.17;57.59;95830.59;5065845;28;20524;-69
2021/04/30 08:22:31;;;;;;;12.03;10.83;;;;;;;11.38;57.67;95837.72;5054657;28;20175;-67
2021/04/30 08:24:56;;;;;;;11.70;10.60;;;;;;;11.54;57.84;95833.44;5056573;28;20506;-67
2021/04/30 08:27:23;;;;;;;10.93;9.93;;;;;;;11.32;58.08;95822.13;5069340;28;20475;-67
2021/04/30 08:29:49;;;;;;;11.57;10.40;;;;;;;11.32;57.70;95835.25;5052884;28;20199;-72
2021/04/30 08:32:16;;;;;;;11.87;10.70;;;;;;;11.11;58.55;95823.66;5050958;28;20422;-70
2021/04/30 08:34:41;;;;;;;12.50;11.20;;;;;;;11.46;57.92;95822.53;5058118;28;20417;-69
2021/04/30 08:37:07;;;;;;;12.83;11.53;;;;;;;11.38;56.17;95800.88;5061567;28;20413;-72
2021/04/30 08:39:33;;;;;;;12.70;11.20;;;;;;;11.37;58.03;95801.94;5054786;28;20229;-73
2021/04/30 08:41:58;;;;;;;10.20;9.30;;;;;;;11.60;58.35;95798.25;5050051;28;20708;-70
2021/04/30 08:44:25;;;;;;;11.27;10.00;;;;;;;11.48;57.53;95791.53;5068180;28;20178;-71
2021/04/30 08:46:50;;;;;;;12.27;11.07;;;;;;;11.36;59.28;95778.47;5069234;28;20542;-77
2021/04/30 08:49:15;;;;;;;11.70;10.50;;;;;;;11.31;61.27;95781.84;5069852;28;20432;-71
2021/04/30 08:51:41;;;;;;;11.27;10.10;;;;;;;11.49;60.11;95783.38;5068107;28;20255;-66
2021/04/30 08:54:08;;;;;;;11.60;10.57;;;;;;;11.86;58.57;95786.19;5054933;28;20576;-60
2021/04/30 08:56:36;;;;;;;11.80;10.13;;;;;;;11.82;57.09;95785.91;5063969;28;20480;-66
2021/04/30 08:59:05;;;;;;;13.40;12.10;;;;;;;11.74;57.57;95794.22;5050115;28;20830;-69
2021/04/30 09:01:30;;;;;;;11.97;10.77;;;;;;;11.61;58.58;95802.50;5050015;28;20460;-68
2021/04/30 09:03:56;;;;;;;11.97;10.70;;;;;;;11.64;58.63;95795.91;5050386;28;20414;-64
2021/04/30 09:06:35;;;;;;;12.37;11.27;;;;;;;11.90;59.18;95803.09;5065006;28;20560;-65
2021/04/30 09:09:14;;;;;;;12.90;11.70;;;;;;;11.69;58.41;95811.78;5063947;28;20576;-66
2021/04/30 09:11:49;;;;;;;13.27;11.17;;;;;;;11.49;59.36;95827.31;5059098;28;20425;-67
2021/04/30 09:14:23;;;;;;;13.37;12.07;;;;;;;11.32;60.34;95828.16;5069660;28;20906;-64
2021/04/30 09:17:12;;;;;;;12.87;11.23;;;;;;;11.09;61.07;95822.28;5068994;28;21088;-64
2021/04/30 09:19:48;;;;;;;12.10;10.90;;;;;;;11.19;60.68;95822.47;5070140;28;20417;-64
2021/04/30 09:22:37;;;;;;;14.00;12.60;;;;;;;10.90;62.16;95823.63;5070139;28;20404;-64
2021/04/30 09:25:05;;;;;;;13.33;12.13;;;;;;;11.09;62.21;95819.66;5055835;28;20454;-62
2021/04/30 09:27:42;;;;;;;12.70;11.50;;;;;;;11.10;62.74;95821.28;5049457;28;20409;-65
2021/04/30 09:30:20;;;;;;;12.60;11.30;;;;;;;11.12;62.15;95821.84;5050068;28;20449;-64
2021/04/30 09:33:04;;;;;;;12.63;11.50;;;;;;;10.93;61.56;95815.25;5052816;28;20414;-68
2021/04/30 09:35:31;;;;;;;14.13;12.57;;;;;;;10.94;62.84;95801.06;5055798;28;20417;-64
2021/04/30 09:37:57;;;;;;;14.50;12.00;;;;;;;10.88;63.49;95809.91;5048990;28;20843;-64
2021/04/30 09:40:31;;;;;;;14.33;11.63;;;;;;;11.10;63.22;95808.13;5064025;28;20456;-63
2021/04/30 09:43:04;;;;;;;12.70;11.60;;;;;;;11.18;62.15;95802.44;5069918;28;20167;-60
2021/04/30 09:45:31;;;;;;;13.30;12.00;;;;;;;11.43;61.98;95803.56;5069822;28;20461;-64
2021/04/30 09:47:59;;;;;;;14.40;12.90;;;;;;;11.19;62.89;95798.78;5069508;28;20815;-65
2021/04/30 09:50:29;;;;;;;13.70;12.30;;;;;;;11.30;61.97;95800.53;5053798;28;20944;-65
2021/04/30 09:53:04;;;;;;;13.17;11.87;;;;;;;11.09;62.86;95802.06;5056485;28;20802;-64
2021/04/30 09:55:45;;;;;;;14.10;12.70;;;;;;;11.17;63.01;95804.28;5073597;28;20825;-64
2021/04/30 09:58:17;;;;;;;13.50;12.20;;;;;;;11.43;61.91;95794.09;5053418;28;20486;-63
2021/04/30 10:00:46;;;;;;;13.43;12.00;;;;;;;11.58;61.73;95786.41;5053197;28;20453;-61
2021/04/30 10:03:35;;;;;;;13.40;12.10;;;;;;;11.39;62.75;95789.31;5053844;28;20406;-68
2021/04/30 10:06:15;;;;;;;12.80;11.40;;;;;;;11.50;61.99;95798.16;5053807;28;21014;-68
2021/04/30 10:08:41;;;;;;;16.00;13.20;;;;;;;11.45;63.17;95792.03;5053054;28;20442;-67
2021/04/30 10:11:33;;;;;;;18.23;13.23;;;;;;;11.47;63.14;95798.63;5062397;28;20470;-69
2021/04/30 10:13:59;;;;;;;13.07;11.87;;;;;;;11.55;63.78;95792.13;5072907;28;20404;-69
2021/04/30 10:16:25;;;;;;;13.93;12.63;;;;;;;11.31;65.59;95797.63;5056031;28;20444;-72
2021/04/30 10:18:50;;;;;;;15.50;13.97;;;;;;;11.45;64.92;95800.69;5052959;28;20187;-72
2021/04/30 10:21:17;;;;;;;14.87;13.57;;;;;;;11.34;65.61;95796.38;5054145;28;20195;-71
2021/04/30 10:23:46;;;;;;;13.03;11.77;;;;;;;11.30;65.03;95805.78;5053048;28;20240;-70
2021/04/30 10:26:15;;;;;;;15.67;14.00;;;;;;;11.01;66.85;95815.66;5065421;28;20805;-64
2021/04/30 10:28:45;;;;;;;14.63;13.23;;;;;;;10.70;67.19;95825.94;5072802;28;20990;-62
2021/04/30 10:31:15;;;;;;;14.67;13.27;;;;;;;10.74;69.01;95824.41;5073123;28;20408;-63
2021/04/30 10:34:00;;;;;;;16.70;14.23;;;;;;;10.72;68.35;95826.50;5073118;28;20416;-62
2021/04/30 10:36:31;;;;;;;14.83;13.43;;;;;;;10.61;68.11;95830.00;5060674;28;20500;-68
2021/04/30 10:38:58;;;;;;;15.60;14.07;;;;;;;10.59;69.06;95832.06;5052362;28;20494;-67
2021/04/30 10:41:41;;;;;;;16.30;14.33;;;;;;;10.82;68.93;95842.41;5069332;28;20516;-67
2021/04/30 10:44:23;;;;;;;17.60;16.00;;;;;;;10.80;70.62;95847.91;5071617;28;20413;-67
2021/04/30 10:47:17;;;;;;;19.17;15.57;;;;;;;10.73;71.14;95842.00;5073051;28;20232;-62
2021/04/30 10:50:05;;;;;;;16.50;14.87;;;;;;;10.61;71.02;95845.75;5063170;28;20485;-60
2021/04/30 10:52:30;;;;;;;18.47;15.27;;;;;;;10.68;71.46;95851.63;5052451;28;20418;-67
2021/04/30 10:55:02;;;;;;;17.67;15.77;;;;;;;10.55;72.65;95855.38;5057078;28;20490;-69
2021/04/30 10:57:55;;;;;;;17.10;15.30;;;;;;;10.38;73.78;95857.19;5052281;28;20167;-62
2021/04/30 11:00:44;;;;;;;16.50;14.90;;;;;;;10.20;75.30;95865.25;5052477;28;20449;-66
2021/04/30 11:03:22;;;;;;;16.40;14.70;;;;;;;10.26;74.68;95870.38;5052693;28;20410;-67
2021/04/30 11:06:04;;;;;;;17.83;15.87;;;;;;;10.25;76.94;95868.00;5050566;28;20951;-72
2021/04/30 11:08:46;;;;;;;16.57;14.87;;;;;;;9.98;75.48;95866.94;5052505;28;20453;-61
2021/04/30 11:11:11;;;;;;;18.07;16.27;;;;;;;10.09;77.14;95871.38;5072324;28;20431;-61
2021/04/30 11:13:37;;;;;;;18.30;16.23;;;;;;;10.20;76.65;95867.88;5071812;28;20404;-66
2021/04/30 11:16:02;;;;;;;19.20;17.20;;;;;;;10.09;77.77;95868.75;5072307;28;20171;-62
2021/04/30 11:18:30;;;;;;;18.40;16.47;;;;;;;10.03;76.11;95864.41;5058540;28;20536;-72
2021/04/30 11:21:06;;;;;;;19.13;16.00;;;;;;;10.02;76.14;95871.47;5052258;28;20258;-71
2021/04/30 11:23:53;;;;;;;20.20;15.73;;;;;;;9.77;76.96;95857.88;5054291;28;20787;-72